Terminal Aerodrome Forecast
Issued by NWS Austin/San Antonio, TX

Current Version | Previous Version | Text Only | Print | Product List | Glossary Off
Versions: 1 2 3 4 5 6 7 8 9 10 11 12 13 14 15 16 17 18 19 20 21 22 23 24 25

963
FTUS44 KEWX 281022 AAB
TAFDRT
TAF AMD
KDRT 281022Z 2810/0106 10005KT 5SM BR SCT250
     FM281200 11005KT 5SM BR OVC015
     FM281300 10006KT 3SM BR OVC006
     FM281800 13005KT P6SM BKN035
     FM282000 12007KT P6SM FEW100=

USA.gov is the U.S. government's official web portal to all federal, state and local government web resources and services.